createdAt,value
2023-02-07T00:02:26.951Z,0.9
2023-02-07T00:08:18.613Z,0.9
2023-02-07T00:14:09.968Z,1
2023-02-07T00:20:00.081Z,0.6
2023-02-07T00:25:52.587Z,0.9
2023-02-07T00:31:43.791Z,0.5
2023-02-07T00:37:38.835Z,1
2023-02-07T00:43:30.077Z,0.5
2023-02-07T00:49:21.320Z,0.8
2023-02-07T00:55:11.870Z,1.1
2023-02-07T01:01:06.844Z,0.8
2023-02-07T01:06:57.563Z,0.9
2023-02-07T01:12:48.578Z,1
2023-02-07T01:18:40.359Z,0.8
2023-02-07T01:24:30.622Z,1
2023-02-07T01:30:19.956Z,0.6
2023-02-07T01:36:14.311Z,0.1
2023-02-07T01:42:05.289Z,0.5
2023-02-07T01:48:04.184Z,0.4
2023-02-07T01:53:54.256Z,0.4
2023-02-07T01:59:44.573Z,0.5
2023-02-07T02:05:38.219Z,0.5
2023-02-07T02:11:30.216Z,0.4
2023-02-07T02:17:22.046Z,0.3
2023-02-07T02:23:13.977Z,0.1
2023-02-07T02:29:04.565Z,0.5
2023-02-07T02:34:54.660Z,0.3
2023-02-07T02:40:47.624Z,0.4
2023-02-07T02:46:38.111Z,0.6
2023-02-07T02:52:48.737Z,0.4
2023-02-07T02:58:39.437Z,0.4
2023-02-07T03:04:29.968Z,0.2
2023-02-07T03:10:20.727Z,0.2
2023-02-07T03:16:19.548Z,0.3
2023-02-07T03:22:10.026Z,0.2
2023-02-07T03:28:02.114Z,0.2
2023-02-07T03:33:53.767Z,0.3
2023-02-07T03:39:48.013Z,0
2023-02-07T03:45:48.421Z,0.1
2023-02-07T03:51:37.921Z,-0.1
2023-02-07T03:57:28.318Z,-0.3
2023-02-07T04:03:21.447Z,0
2023-02-07T04:09:11.996Z,-0.3
2023-02-07T04:15:04.751Z,-0.3
2023-02-07T04:20:54.585Z,-0.6
2023-02-07T04:26:45.618Z,-0.6
2023-02-07T04:32:36.818Z,-0.4
2023-02-07T04:38:27.554Z,-0.7
2023-02-07T04:44:18.200Z,-0.7
2023-02-07T04:50:22.570Z,-0.5
2023-02-07T04:56:13.567Z,-0.7
2023-02-07T05:02:11.202Z,-0.9
2023-02-07T05:08:09.466Z,-1.1
2023-02-07T05:13:59.522Z,-1
2023-02-07T05:19:56.333Z,-1
2023-02-07T05:25:47.541Z,-1
2023-02-07T05:31:39.275Z,-0.9
2023-02-07T05:37:31.200Z,-1
2023-02-07T05:43:26.382Z,-1
2023-02-07T05:50:30.442Z,-1.3
2023-02-07T05:56:20.057Z,-1.2
2023-02-07T06:02:11.137Z,-1.2
2023-02-07T06:08:03.604Z,-1.2
2023-02-07T06:13:55.565Z,-1.4
2023-02-07T06:19:47.304Z,-1.3
2023-02-07T06:25:40.612Z,-2.1
2023-02-07T06:31:36.708Z,-2
2023-02-07T06:37:30.460Z,-1.6
2023-02-07T06:43:27.072Z,-1.4
2023-02-07T06:49:17.983Z,-1.5
2023-02-07T06:55:10.031Z,-1.6
2023-02-07T07:01:08.407Z,-1.4
2023-02-07T07:07:03.640Z,-1.6
2023-02-07T07:12:59.000Z,-1.4
2023-02-07T07:19:06.770Z,-1.4
2023-02-07T07:24:58.202Z,-1.3
2023-02-07T07:30:48.687Z,-1.3
2023-02-07T07:36:40.541Z,-1.1
2023-02-07T07:42:30.946Z,-1.4
2023-02-07T07:48:24.647Z,-1.3
2023-02-07T07:54:14.603Z,-1.4
2023-02-07T08:00:10.437Z,-1.3
2023-02-07T08:06:00.006Z,-1.2
2023-02-07T08:11:48.912Z,-1.1
2023-02-07T08:17:36.941Z,-1.1
2023-02-07T08:23:43.513Z,-0.8
2023-02-07T08:29:35.489Z,-0.8
2023-02-07T08:35:41.067Z,-0.8
2023-02-07T08:41:38.528Z,-0.5
2023-02-07T08:47:34.158Z,-0.2
2023-02-07T08:53:33.676Z,-0.1
2023-02-07T08:59:31.192Z,0
2023-02-07T09:05:47.205Z,0.2
2023-02-07T09:52:28.998Z,1.2
2023-02-07T10:38:10.639Z,2.2
2023-02-07T10:44:12.706Z,2.3
2023-02-07T10:50:06.714Z,2.4
2023-02-07T10:56:14.357Z,2.5
2023-02-07T11:02:55.470Z,2.7
2023-02-07T11:08:55.165Z,2.6
2023-02-07T11:15:25.540Z,2.8
2023-02-07T11:34:09.790Z,3.2
2023-02-07T11:46:47.055Z,3.3
2023-02-07T11:53:03.453Z,3.4
2023-02-07T11:59:05.008Z,3.5
2023-02-07T12:04:55.849Z,3.7
2023-02-07T12:17:00.093Z,3.8
2023-02-07T12:22:59.339Z,4
2023-02-07T12:29:30.359Z,4.1
2023-02-07T12:35:25.925Z,4.2
2023-02-07T12:41:44.484Z,4.4
2023-02-07T12:47:36.546Z,4.4
2023-02-07T12:53:27.845Z,4.7
2023-02-07T12:59:20.803Z,4.7
2023-02-07T13:05:12.085Z,4.8
2023-02-07T13:11:09.683Z,5
2023-02-07T13:17:03.608Z,5
2023-02-07T13:22:56.180Z,5
2023-02-07T13:28:47.831Z,5.3
2023-02-07T13:34:39.653Z,5.5
2023-02-07T13:40:30.897Z,5.4
2023-02-07T13:46:26.858Z,5.4
2023-02-07T13:52:25.374Z,5.3
2023-02-07T13:58:18.051Z,5.2
2023-02-07T14:04:12.233Z,5.4
2023-02-07T14:10:05.023Z,5.7
2023-02-07T14:16:00.704Z,5.5
2023-02-07T14:21:54.942Z,5.4
2023-02-07T14:27:47.847Z,6
2023-02-07T14:33:37.569Z,5.8
2023-02-07T14:39:27.595Z,5.8
2023-02-07T14:45:19.311Z,5.9
2023-02-07T14:51:12.840Z,6
2023-02-07T14:57:07.903Z,5.8
2023-02-07T15:02:59.510Z,5.8
2023-02-07T15:08:50.596Z,5.8
2023-02-07T15:14:41.761Z,5.7
2023-02-07T15:20:35.149Z,6
2023-02-07T15:26:27.136Z,5.7
2023-02-07T15:32:18.902Z,5.8
2023-02-07T15:38:10.682Z,5.6
2023-02-07T15:44:03.945Z,5.6
2023-02-07T15:50:00.202Z,5.5
2023-02-07T15:55:52.145Z,5.4
2023-02-07T16:01:44.253Z,5.3
2023-02-07T16:07:36.777Z,5.2
2023-02-07T16:13:30.607Z,5.2
2023-02-07T16:19:26.253Z,5.1
2023-02-07T16:25:29.293Z,4.8
2023-02-07T16:31:26.696Z,4.6
2023-02-07T16:37:27.965Z,4.3
2023-02-07T16:43:30.060Z,4.1
2023-02-07T16:49:21.014Z,4
2023-02-07T16:55:14.017Z,3.8
2023-02-07T17:01:09.322Z,3.4
2023-02-07T17:07:07.025Z,3.3
2023-02-07T17:19:36.136Z,3
2023-02-07T17:59:09.308Z,2.2
2023-02-07T18:05:05.645Z,2
2023-02-07T18:11:06.938Z,1.8
2023-02-07T18:23:12.815Z,1.9
2023-02-07T18:29:04.888Z,1.8
2023-02-07T18:35:11.062Z,1.6
2023-02-07T18:41:01.785Z,1.2
2023-02-07T18:46:56.098Z,1.4
2023-02-07T18:52:48.008Z,1.3
2023-02-07T18:58:47.151Z,1.2
2023-02-07T19:04:39.637Z,1
2023-02-07T19:10:31.298Z,1.2
2023-02-07T19:16:27.264Z,1.1
2023-02-07T19:22:34.882Z,1
2023-02-07T19:28:28.891Z,1.1
2023-02-07T19:34:33.440Z,1.1
2023-02-07T19:53:22.594Z,1.1
2023-02-07T19:59:26.921Z,0.9
2023-02-07T20:05:19.010Z,0.7
2023-02-07T20:11:13.644Z,0.4
2023-02-07T20:23:59.356Z,0.4
2023-02-07T20:30:00.905Z,0
2023-02-07T20:49:50.501Z,0.2
2023-02-07T21:02:39.048Z,0.1
2023-02-07T21:08:36.644Z,-0.1
2023-02-07T21:14:29.316Z,0
2023-02-07T21:20:22.603Z,-0.1
2023-02-07T21:26:13.917Z,0
2023-02-07T21:32:06.220Z,0
2023-02-07T21:37:57.073Z,-0.1
2023-02-07T21:43:49.932Z,-0.3
2023-02-07T21:49:42.155Z,-0.2
2023-02-07T22:01:57.401Z,-0.2
2023-02-07T22:07:59.604Z,-0.3
2023-02-07T22:13:53.198Z,-0.2
2023-02-07T22:19:58.037Z,-0.5
2023-02-07T22:25:49.680Z,-0.4
2023-02-07T22:44:05.950Z,-0.3
2023-02-07T22:57:24.134Z,-0.3
2023-02-07T23:03:28.133Z,-0.4
2023-02-07T23:09:18.176Z,-0.5
2023-02-07T23:15:15.805Z,-0.6
2023-02-07T23:21:17.448Z,-0.7
2023-02-07T23:27:08.816Z,-0.8
2023-02-07T23:39:11.031Z,-1
2023-02-07T23:45:09.281Z,-0.8
2023-02-07T23:51:02.208Z,-0.9
2023-02-07T23:57:01.920Z,-1.1
